createdAt,value
2022-09-06T00:01:11.626Z,100930.41
2022-09-06T00:05:20.027Z,100935.35
2022-09-06T00:09:27.911Z,100930.16
2022-09-06T00:13:37.597Z,100921.56
2022-09-06T00:17:46.702Z,100920.11
2022-09-06T00:21:54.600Z,100920.15
2022-09-06T00:26:07.447Z,100920.98
2022-09-06T00:30:16.513Z,100920.31
2022-09-06T00:34:24.510Z,100919.34
2022-09-06T00:38:32.212Z,100919.73
2022-09-06T00:42:40.413Z,100917.48
2022-09-06T00:46:49.897Z,100912.38
2022-09-06T00:50:59.057Z,100908.45
2022-09-06T00:55:07.976Z,100909.86
2022-09-06T00:59:16.259Z,100915.75
2022-09-06T01:03:25.552Z,100924.30
2022-09-06T01:07:42.069Z,100915.58
2022-09-06T01:12:00.648Z,100914.94
2022-09-06T01:16:15.005Z,100912.43
2022-09-06T01:20:35.221Z,100905.61
2022-09-06T01:25:08.922Z,100903.90
2022-09-06T01:29:22.299Z,100905.63
2022-09-06T01:33:34.071Z,100906.86
2022-09-06T01:37:42.365Z,100906.84
2022-09-06T01:41:50.350Z,100913.52
2022-09-06T01:46:05.409Z,100911.38
2022-09-06T01:50:45.629Z,100911.65
2022-09-06T01:55:07.719Z,100909.36
2022-09-06T01:59:38.539Z,100915.39
2022-09-06T02:03:50.104Z,100914.89
2022-09-06T02:08:01.950Z,100914.38
2022-09-06T02:12:13.471Z,100918.55
2022-09-06T02:16:26.831Z,100910.67
2022-09-06T02:20:36.907Z,100908.45
2022-09-06T02:24:45.743Z,100906.05
2022-09-06T02:28:53.870Z,100905.27
2022-09-06T02:33:03.847Z,100902.72
2022-09-06T02:37:12.456Z,100895.04
2022-09-06T02:41:22.939Z,100890.38
2022-09-06T02:45:33.619Z,100885.20
2022-09-06T02:49:41.580Z,100878.52
2022-09-06T02:53:49.445Z,100878.39
2022-09-06T02:57:57.670Z,100880.58
2022-09-06T03:02:05.697Z,100881.34
2022-09-06T03:06:14.124Z,100880.23
2022-09-06T03:10:22.299Z,100872.13
2022-09-06T03:14:30.660Z,100868.16
2022-09-06T03:18:38.500Z,100857.34
2022-09-06T03:22:47.197Z,100855.23
2022-09-06T03:26:55.952Z,100857.00
2022-09-06T03:31:03.744Z,100865.27
2022-09-06T03:35:13.148Z,100870.11
2022-09-06T03:39:21.406Z,100869.85
2022-09-06T03:43:30.221Z,100871.03
2022-09-06T03:47:38.534Z,100872.75
2022-09-06T03:51:47.088Z,100864.91
2022-09-06T03:55:56.233Z,100856.31
2022-09-06T04:00:05.582Z,100852.98
2022-09-06T04:04:13.220Z,100846.39
2022-09-06T04:08:21.365Z,100838.10
2022-09-06T04:12:29.534Z,100839.45
2022-09-06T04:16:37.818Z,100837.54
2022-09-06T04:20:46.802Z,100841.77
2022-09-06T04:24:54.669Z,100846.86
2022-09-06T04:29:03.004Z,100846.79
2022-09-06T04:33:10.788Z,100843.02
2022-09-06T04:37:20.712Z,100846.23
2022-09-06T04:41:29.389Z,100844.77
2022-09-06T04:45:44.862Z,100849.38
2022-09-06T04:49:55.307Z,100856.33
2022-09-06T04:54:04.746Z,100858.45
2022-09-06T04:58:17.239Z,100859.23
2022-09-06T05:02:29.492Z,100857.54
2022-09-06T05:06:41.714Z,100861.23
2022-09-06T05:10:49.941Z,100862.00
2022-09-06T05:15:01.769Z,100867.52
2022-09-06T05:19:09.886Z,100868.74
2022-09-06T05:23:21.154Z,100864.54
2022-09-06T05:27:34.919Z,100866.73
2022-09-06T05:31:50.299Z,100870.83
2022-09-06T05:36:00.723Z,100882.30
2022-09-06T05:40:13.402Z,100891.00
2022-09-06T05:44:28.557Z,100896.34
2022-09-06T05:48:41.752Z,100902.37
2022-09-06T05:52:59.499Z,100899.74
2022-09-06T05:57:07.305Z,100896.66
2022-09-06T06:01:22.544Z,100892.69
2022-09-06T06:05:37.791Z,100889.73
2022-09-06T06:09:47.787Z,100882.61
2022-09-06T06:14:03.789Z,100883.12
2022-09-06T06:18:11.636Z,100882.94
2022-09-06T06:22:19.750Z,100883.20
2022-09-06T06:26:35.288Z,100884.09
2022-09-06T06:30:45.496Z,100884.26
2022-09-06T06:35:02.235Z,100881.58
2022-09-06T06:39:13.731Z,100878.10
2022-09-06T06:43:24.792Z,100876.84
2022-09-06T06:47:37.087Z,100876.75
2022-09-06T06:51:51.149Z,100876.79
2022-09-06T06:56:14.245Z,100879.98
2022-09-06T07:00:25.170Z,100876.73
2022-09-06T07:04:36.703Z,100878.92
2022-09-06T07:08:49.358Z,100886.27
2022-09-06T07:13:00.179Z,100886.56
2022-09-06T07:17:10.109Z,100885.17
2022-09-06T07:21:42.523Z,100891.58
2022-09-06T07:25:56.941Z,100898.33
2022-09-06T07:30:15.228Z,100899.58
2022-09-06T07:34:30.190Z,100896.33
2022-09-06T07:38:45.060Z,100895.30
2022-09-06T07:42:59.451Z,100899.65
2022-09-06T07:51:37.093Z,100895.43
2022-09-06T07:55:44.684Z,100894.50
2022-09-06T07:59:58.154Z,100891.19
2022-09-06T08:04:13.122Z,100896.00
2022-09-06T08:13:03.498Z,100878.42
2022-09-06T08:17:12.756Z,100876.11
2022-09-06T08:21:25.268Z,100878.49
2022-09-06T08:25:40.918Z,100878.48
2022-09-06T08:29:55.448Z,100875.90
2022-09-06T08:34:06.003Z,100868.80
2022-09-06T08:38:14.940Z,100860.58
2022-09-06T08:42:22.819Z,100858.66
2022-09-06T08:46:33.906Z,100864.16
2022-09-06T08:50:43.593Z,100871.19
2022-09-06T08:54:58.624Z,100868.13
2022-09-06T08:59:09.471Z,100859.48
2022-09-06T09:03:24.067Z,100859.88
2022-09-06T09:08:01.751Z,100857.93
2022-09-06T09:12:13.583Z,100861.88
2022-09-06T09:16:31.302Z,100872.95
2022-09-06T09:20:45.514Z,100870.09
2022-09-06T09:24:57.323Z,100872.71
2022-09-06T09:29:12.706Z,100869.59
2022-09-06T09:33:30.225Z,100867.60
2022-09-06T09:41:53.730Z,100864.02
2022-09-06T09:46:16.889Z,100860.98
2022-09-06T09:50:30.317Z,100852.09
2022-09-06T09:54:39.874Z,100846.48
2022-09-06T09:58:47.499Z,100843.30
2022-09-06T10:02:55.970Z,100833.98
2022-09-06T10:07:15.458Z,100820.36
2022-09-06T10:11:41.848Z,100813.73
2022-09-06T10:15:50.599Z,100805.31
2022-09-06T10:19:58.915Z,100797.73
2022-09-06T10:28:36.486Z,100786.14
2022-09-06T10:32:53.879Z,100779.32
2022-09-06T10:37:09.987Z,100781.35
2022-09-06T10:41:34.469Z,100777.10
2022-09-06T10:45:48.731Z,100769.35
2022-09-06T10:49:59.268Z,100772.36
2022-09-06T10:54:13.065Z,100773.69
2022-09-06T11:07:38.232Z,100780.70
2022-09-06T11:11:49.044Z,100778.21
2022-09-06T11:16:01.656Z,100768.34
2022-09-06T11:20:13.361Z,100769.02
2022-09-06T11:24:30.450Z,100767.39
2022-09-06T11:28:41.096Z,100763.45
2022-09-06T11:32:50.499Z,100764.67
2022-09-06T11:37:00.173Z,100755.35
2022-09-06T11:41:16.913Z,100749.78
2022-09-06T11:45:40.891Z,100747.94
2022-09-06T11:49:49.792Z,100747.69
2022-09-06T11:54:25.257Z,100739.45
2022-09-06T11:58:48.283Z,100736.66
2022-09-06T12:07:24.631Z,100737.83
2022-09-06T12:11:39.712Z,100734.25
2022-09-06T12:15:56.742Z,100726.73
2022-09-06T12:20:11.380Z,100731.09
2022-09-06T12:24:54.537Z,100733.27
2022-09-06T12:29:02.752Z,100728.70
2022-09-06T12:33:13.375Z,100726.30
2022-09-06T12:37:34.243Z,100724.88
2022-09-06T12:41:44.683Z,100720.48
2022-09-06T12:45:53.671Z,100713.94
2022-09-06T12:50:18.935Z,100707.79
2022-09-06T12:54:28.968Z,100698.23
2022-09-06T12:58:36.961Z,100686.73
2022-09-06T13:02:53.382Z,100673.80
2022-09-06T13:07:04.622Z,100663.92
2022-09-06T13:11:14.655Z,100660.31
2022-09-06T13:15:25.400Z,100658.85
2022-09-06T13:19:38.277Z,100655.83
2022-09-06T13:23:48.587Z,100647.23
2022-09-06T13:27:59.083Z,100643.98
2022-09-06T13:32:09.968Z,100638.59
2022-09-06T13:36:26.265Z,100632.67
2022-09-06T13:41:10.591Z,100628.95
2022-09-06T13:45:26.329Z,100627.83
2022-09-06T13:49:35.898Z,100629.94
2022-09-06T13:53:43.956Z,100627.36
2022-09-06T13:57:51.972Z,100630.42
2022-09-06T14:02:04.982Z,100629.00
2022-09-06T14:06:13.711Z,100623.95
2022-09-06T14:10:24.269Z,100614.58
2022-09-06T14:14:31.697Z,100607.73
2022-09-06T14:18:40.643Z,100606.23
2022-09-06T14:22:48.517Z,100606.37
2022-09-06T14:26:56.479Z,100604.39
2022-09-06T14:31:12.962Z,100607.54
2022-09-06T14:35:20.681Z,100604.89
2022-09-06T14:39:28.714Z,100598.24
2022-09-06T14:43:37.146Z,100597.67
2022-09-06T14:47:45.926Z,100595.66
2022-09-06T14:51:55.024Z,100590.46
2022-09-06T14:56:06.327Z,100583.39
2022-09-06T15:00:16.069Z,100580.79
2022-09-06T15:04:23.939Z,100583.68
2022-09-06T15:08:31.238Z,100587.96
2022-09-06T15:12:39.463Z,100582.06
2022-09-06T15:16:53.360Z,100585.55
2022-09-06T15:21:13.674Z,100583.45
2022-09-06T15:25:21.276Z,100580.54
2022-09-06T15:29:29.182Z,100573.46
2022-09-06T15:33:38.384Z,100562.20
2022-09-06T15:37:46.386Z,100560.73
2022-09-06T15:41:54.922Z,100558.77
2022-09-06T15:46:02.127Z,100552.48
2022-09-06T15:50:11.253Z,100557.48
2022-09-06T15:54:40.247Z,100561.86
2022-09-06T15:58:48.546Z,100554.48
2022-09-06T16:02:58.389Z,100553.06
2022-09-06T16:07:06.806Z,100553.52
2022-09-06T16:11:16.016Z,100542.15
2022-09-06T16:15:23.943Z,100534.23
2022-09-06T16:19:31.754Z,100525.13
2022-09-06T16:23:40.336Z,100524.95
2022-09-06T16:27:47.955Z,100525.67
2022-09-06T16:32:00.016Z,100528.11
2022-09-06T16:36:11.344Z,100523.28
2022-09-06T16:40:19.393Z,100510.16
2022-09-06T16:44:27.257Z,100500.52
2022-09-06T16:48:35.076Z,100497.11
2022-09-06T16:52:43.051Z,100496.93
2022-09-06T16:56:51.062Z,100500.95
2022-09-06T17:01:01.199Z,100504.60
2022-09-06T17:05:11.456Z,100505.08
2022-09-06T17:09:21.227Z,100510.88
2022-09-06T17:13:29.555Z,100506.42
2022-09-06T17:17:37.590Z,100506.25
2022-09-06T17:21:45.747Z,100509.48
2022-09-06T17:25:53.966Z,100517.27
2022-09-06T17:30:01.782Z,100519.76
2022-09-06T17:34:09.601Z,100519.73
2022-09-06T17:38:18.486Z,100518.45
2022-09-06T17:42:27.050Z,100516.87
2022-09-06T17:46:35.104Z,100515.83
2022-09-06T17:50:43.511Z,100517.23
2022-09-06T17:54:51.137Z,100524.23
2022-09-06T17:59:01.423Z,100527.98
2022-09-06T18:03:11.076Z,100538.05
2022-09-06T18:07:19.990Z,100542.75
2022-09-06T18:11:29.287Z,100538.63
2022-09-06T18:15:42.240Z,100533.30
2022-09-06T18:19:49.698Z,100521.71
2022-09-06T18:23:59.403Z,100519.56
2022-09-06T18:28:09.861Z,100528.23
2022-09-06T18:32:18.222Z,100528.80
2022-09-06T18:36:31.152Z,100530.14
2022-09-06T18:40:41.225Z,100527.85
2022-09-06T18:44:48.986Z,100532.00
2022-09-06T18:48:57.196Z,100532.56
2022-09-06T18:53:04.749Z,100533.09
2022-09-06T18:57:15.529Z,100529.80
2022-09-06T19:01:23.025Z,100531.33
2022-09-06T19:05:31.611Z,100531.67
2022-09-06T19:09:39.474Z,100538.02
2022-09-06T19:13:51.141Z,100536.80
2022-09-06T19:17:59.105Z,100533.34
2022-09-06T19:22:07.370Z,100531.81
2022-09-06T19:26:17.872Z,100532.51
2022-09-06T19:30:25.257Z,100531.27
2022-09-06T19:34:33.637Z,100531.55
2022-09-06T19:39:02.103Z,100532.48
2022-09-06T19:43:09.638Z,100525.62
2022-09-06T19:47:18.057Z,100520.00
2022-09-06T19:51:26.215Z,100511.29
2022-09-06T19:55:35.816Z,100505.04
2022-09-06T19:59:45.142Z,100500.53
2022-09-06T20:03:52.735Z,100497.62
2022-09-06T20:08:00.759Z,100498.11
2022-09-06T20:12:09.751Z,100492.46
2022-09-06T20:16:20.414Z,100495.56
2022-09-06T20:20:28.767Z,100494.92
2022-09-06T20:24:38.140Z,100489.70
2022-09-06T20:28:46.183Z,100492.44
2022-09-06T20:32:53.874Z,100487.88
2022-09-06T20:37:01.905Z,100485.13
2022-09-06T20:41:11.074Z,100487.69
2022-09-06T20:45:19.795Z,100485.87
2022-09-06T20:49:27.908Z,100485.36
2022-09-06T20:53:37.790Z,100482.86
2022-09-06T20:57:47.800Z,100476.61
2022-09-06T21:01:55.484Z,100479.76
2022-09-06T21:06:07.700Z,100475.19
2022-09-06T21:10:15.709Z,100477.13
2022-09-06T21:14:23.366Z,100476.13
2022-09-06T21:18:31.664Z,100474.19
2022-09-06T21:22:39.272Z,100471.56
2022-09-06T21:26:46.841Z,100475.76
2022-09-06T21:31:04.825Z,100475.11
2022-09-06T21:35:12.966Z,100474.38
2022-09-06T21:39:20.727Z,100477.42
2022-09-06T21:43:28.523Z,100477.81
2022-09-06T21:47:36.452Z,100478.38
2022-09-06T21:51:44.703Z,100474.61
2022-09-06T21:55:52.926Z,100471.09
2022-09-06T22:00:01.046Z,100469.64
2022-09-06T22:04:14.752Z,100467.09
2022-09-06T22:08:22.976Z,100464.88
2022-09-06T22:12:31.291Z,100460.39
2022-09-06T22:16:40.892Z,100456.50
2022-09-06T22:20:48.364Z,100456.40
2022-09-06T22:24:55.903Z,100456.08
2022-09-06T22:29:06.135Z,100459.31
2022-09-06T22:33:14.083Z,100456.10
2022-09-06T22:37:22.524Z,100457.00
2022-09-06T22:41:31.770Z,100452.62
2022-09-06T22:45:40.825Z,100451.25
2022-09-06T22:49:49.453Z,100448.47
2022-09-06T22:53:57.665Z,100437.39
2022-09-06T22:58:06.240Z,100436.61
2022-09-06T23:02:13.976Z,100430.94
2022-09-06T23:06:21.881Z,100424.48
2022-09-06T23:10:30.648Z,100426.08
2022-09-06T23:14:38.358Z,100425.86
2022-09-06T23:18:45.638Z,100426.47
2022-09-06T23:22:53.206Z,100430.64
2022-09-06T23:27:02.444Z,100423.73
2022-09-06T23:31:12.060Z,100421.18
2022-09-06T23:35:21.135Z,100416.61
2022-09-06T23:39:29.798Z,100415.41
2022-09-06T23:43:38.285Z,100411.76
2022-09-06T23:47:46.686Z,100409.35
2022-09-06T23:51:56.180Z,100411.34
2022-09-06T23:56:04.866Z,100407.99
